createdAt,value
2018-02-15T00:01:46.810Z,14.63
2018-02-15T00:06:30.181Z,13.70
2018-02-15T00:11:14.545Z,13.87
2018-02-15T00:15:58.693Z,13.33
2018-02-15T00:20:42.091Z,12.93
2018-02-15T00:25:25.509Z,13.63
2018-02-15T00:30:08.850Z,13.50
2018-02-15T00:34:52.249Z,13.37
2018-02-15T00:39:35.641Z,13.03
2018-02-15T00:44:19.014Z,12.47
2018-02-15T00:49:02.344Z,13.00
2018-02-15T00:53:45.761Z,11.10
2018-02-15T00:58:29.111Z,12.60
2018-02-15T01:03:13.236Z,12.70
2018-02-15T01:07:56.611Z,13.67
2018-02-15T01:12:40.750Z,12.53
2018-02-15T01:17:24.127Z,12.93
2018-02-15T01:22:07.468Z,12.13
2018-02-15T01:26:50.862Z,11.63
2018-02-15T01:31:34.246Z,11.87
2018-02-15T01:36:17.684Z,12.40
2018-02-15T01:41:01.006Z,12.47
2018-02-15T01:45:44.687Z,12.23
2018-02-15T01:50:28.020Z,12.87
2018-02-15T01:55:11.347Z,13.17
2018-02-15T01:59:55.448Z,13.80
2018-02-15T02:04:38.780Z,13.40
2018-02-15T02:09:22.127Z,12.93
2018-02-15T02:14:05.471Z,13.40
2018-02-15T02:18:48.971Z,12.47
2018-02-15T02:23:32.326Z,13.30
2018-02-15T02:28:15.678Z,13.97
2018-02-15T02:32:59.027Z,15.00
2018-02-15T02:37:42.428Z,14.97
2018-02-15T02:42:26.615Z,15.53
2018-02-15T02:47:09.932Z,15.47
2018-02-15T02:51:54.086Z,15.10
2018-02-15T02:56:38.233Z,16.33
2018-02-15T03:01:21.602Z,17.10
2018-02-15T03:06:04.939Z,15.70
2018-02-15T03:10:48.460Z,15.17
2018-02-15T03:15:31.861Z,16.00
2018-02-15T03:20:15.194Z,17.60
2018-02-15T03:24:59.515Z,17.47
2018-02-15T03:29:43.687Z,16.20
2018-02-15T03:34:27.089Z,15.83
2018-02-15T03:39:10.440Z,15.17
2018-02-15T03:43:53.798Z,16.37
2018-02-15T03:48:38.001Z,16.23
2018-02-15T03:53:21.347Z,15.60
2018-02-15T03:58:04.731Z,16.77
2018-02-15T04:02:48.856Z,17.23
2018-02-15T04:07:32.224Z,17.70
2018-02-15T04:12:15.594Z,18.57
2018-02-15T04:16:58.991Z,18.97
2018-02-15T04:21:42.292Z,19.33
2018-02-15T04:26:25.661Z,19.00
2018-02-15T04:31:09.022Z,19.10
2018-02-15T04:35:52.461Z,19.77
2018-02-15T04:40:35.831Z,18.70
2018-02-15T04:45:19.191Z,18.77
2018-02-15T04:50:02.540Z,20.73
2018-02-15T04:54:45.900Z,20.30
2018-02-15T04:59:29.205Z,21.13
2018-02-15T05:04:12.587Z,20.97
2018-02-15T05:08:55.988Z,22.67
2018-02-15T05:13:39.394Z,23.73
2018-02-15T05:18:22.800Z,20.27
2018-02-15T05:23:06.202Z,20.13
2018-02-15T05:27:50.279Z,22.07
2018-02-15T05:32:33.701Z,21.47
2018-02-15T05:37:17.938Z,21.63
2018-02-15T05:42:01.311Z,20.90
2018-02-15T05:46:45.427Z,20.57
2018-02-15T05:51:28.875Z,21.00
2018-02-15T05:56:12.235Z,18.97
2018-02-15T06:00:56.295Z,19.87
2018-02-15T06:05:40.415Z,21.33
2018-02-15T06:10:23.760Z,22.27
2018-02-15T06:15:07.108Z,20.13
2018-02-15T06:19:51.220Z,23.23
2018-02-15T06:24:34.569Z,24.67
2018-02-15T06:29:17.865Z,26.83
2018-02-15T06:34:01.247Z,27.23
2018-02-15T06:38:44.634Z,28.00
2018-02-15T06:43:29.732Z,31.10
2018-02-15T06:48:14.047Z,27.57
2018-02-15T06:52:57.391Z,29.20
2018-02-15T06:57:40.774Z,24.23
2018-02-15T07:02:24.928Z,22.30
2018-02-15T07:07:08.617Z,21.17
2018-02-15T07:11:51.942Z,22.77
2018-02-15T07:16:35.303Z,22.63
2018-02-15T07:21:18.780Z,22.13
2018-02-15T07:26:03.031Z,23.40
2018-02-15T07:30:47.213Z,23.47
2018-02-15T07:35:30.705Z,23.40
2018-02-15T07:40:14.137Z,23.43
2018-02-15T07:44:58.983Z,23.57
2018-02-15T07:49:42.364Z,23.57
2018-02-15T07:54:26.510Z,20.70
2018-02-15T07:59:09.902Z,22.07
2018-02-15T08:03:53.256Z,24.03
2018-02-15T08:08:36.615Z,24.07
2018-02-15T08:13:21.091Z,24.03
2018-02-15T08:18:05.593Z,23.67
2018-02-15T08:22:49.001Z,23.33
2018-02-15T08:27:32.337Z,24.07
2018-02-15T08:32:15.726Z,23.43
2018-02-15T08:36:59.917Z,22.37
2018-02-15T08:41:43.729Z,24.40
2018-02-15T08:46:27.120Z,23.93
2018-02-15T08:51:10.517Z,24.00
2018-02-15T08:55:53.995Z,23.60
2018-02-15T09:00:37.361Z,22.50
2018-02-15T09:05:20.736Z,23.67
2018-02-15T09:10:04.071Z,26.67
2018-02-15T09:14:47.414Z,21.47
2018-02-15T09:19:30.808Z,19.80
2018-02-15T09:24:14.166Z,18.37
2018-02-15T09:28:58.318Z,18.53
2018-02-15T09:33:42.564Z,21.33
2018-02-15T09:38:26.061Z,21.30
2018-02-15T09:43:09.438Z,21.13
2018-02-15T09:47:52.888Z,20.27
2018-02-15T09:52:36.980Z,21.43
2018-02-15T09:57:20.335Z,20.07
2018-02-15T10:02:03.693Z,21.27
2018-02-15T10:06:47.164Z,20.43
2018-02-15T10:11:30.538Z,21.10
2018-02-15T10:16:21.354Z,20.73
2018-02-15T10:21:05.506Z,19.17
2018-02-15T10:25:49.628Z,19.37
2018-02-15T10:30:33.005Z,19.40
2018-02-15T10:35:17.462Z,20.03
2018-02-15T10:40:00.869Z,21.60
2018-02-15T10:44:44.173Z,20.63
2018-02-15T10:49:27.745Z,19.40
2018-02-15T10:54:11.075Z,18.43
2018-02-15T10:58:54.434Z,20.30
2018-02-15T11:03:37.783Z,19.57
2018-02-15T11:08:21.111Z,18.03
2018-02-15T11:13:04.443Z,17.43
2018-02-15T11:17:47.876Z,18.83
2018-02-15T11:22:31.226Z,17.10
2018-02-15T11:27:14.672Z,17.07
2018-02-15T11:31:58.776Z,18.13
2018-02-15T11:36:42.886Z,15.67
2018-02-15T11:41:26.337Z,18.57
2018-02-15T11:46:09.640Z,18.43
2018-02-15T11:50:53.067Z,18.43
2018-02-15T11:55:36.475Z,14.73
2018-02-15T12:00:19.906Z,15.07
2018-02-15T12:05:03.975Z,13.97
2018-02-15T12:09:50.977Z,14.13
2018-02-15T12:14:34.326Z,13.73
2018-02-15T12:19:17.685Z,15.27
2018-02-15T12:24:01.058Z,14.60
2018-02-15T12:28:46.097Z,15.27
2018-02-15T12:33:29.522Z,15.33
2018-02-15T12:38:12.933Z,15.33
2018-02-15T12:42:56.300Z,14.73
2018-02-15T12:47:39.914Z,16.00
2018-02-15T12:52:23.239Z,14.30
2018-02-15T12:57:07.019Z,13.77
2018-02-15T13:01:50.373Z,13.80
2018-02-15T13:06:33.697Z,13.93
2018-02-15T13:11:17.799Z,13.43
2018-02-15T13:16:13.762Z,13.40
2018-02-15T13:20:57.198Z,12.00
2018-02-15T13:25:40.600Z,11.90
2018-02-15T13:30:23.968Z,11.17
2018-02-15T13:35:07.419Z,11.50
2018-02-15T13:39:51.224Z,11.60
2018-02-15T13:44:34.584Z,12.63
2018-02-15T13:49:17.983Z,11.83
2018-02-15T13:54:02.101Z,13.20
2018-02-15T13:58:45.424Z,13.60
2018-02-15T14:03:28.754Z,13.87
2018-02-15T14:08:12.154Z,17.17
2018-02-15T14:12:55.522Z,13.80
2018-02-15T14:17:38.862Z,13.37
2018-02-15T14:22:22.234Z,13.30
2018-02-15T14:27:05.800Z,12.40
2018-02-15T14:31:49.989Z,13.93
2018-02-15T14:36:33.326Z,15.80
2018-02-15T14:41:16.790Z,14.73
2018-02-15T14:46:00.917Z,13.13
2018-02-15T14:50:44.213Z,17.53
2018-02-15T14:55:27.578Z,18.30
2018-02-15T15:00:10.936Z,17.97
2018-02-15T15:04:54.368Z,18.70
2018-02-15T15:09:37.677Z,17.60
2018-02-15T15:14:21.124Z,16.90
2018-02-15T15:19:04.655Z,18.73
2018-02-15T15:23:48.011Z,20.90
2018-02-15T15:28:31.378Z,19.37
2018-02-15T15:33:14.730Z,19.87
2018-02-15T15:37:58.168Z,19.87
2018-02-15T15:42:41.544Z,21.30
2018-02-15T15:47:25.603Z,18.57
2018-02-15T15:52:09.002Z,16.27
2018-02-15T15:56:52.382Z,16.17
2018-02-15T16:01:35.728Z,16.67
2018-02-15T16:06:19.092Z,16.00
2018-02-15T16:11:02.414Z,16.40
2018-02-15T16:15:45.774Z,16.43
2018-02-15T16:20:29.141Z,16.00
2018-02-15T16:25:12.490Z,15.40
2018-02-15T16:29:55.837Z,16.10
2018-02-15T16:34:39.399Z,15.30
2018-02-15T16:39:23.115Z,16.10
2018-02-15T16:44:07.054Z,16.53
2018-02-15T16:48:51.239Z,16.73
2018-02-15T16:53:34.616Z,16.27
2018-02-15T16:58:18.003Z,16.53
2018-02-15T17:03:01.370Z,15.03
2018-02-15T17:07:44.771Z,22.27
2018-02-15T17:12:34.786Z,14.77
2018-02-15T17:17:24.950Z,15.63
2018-02-15T17:22:09.348Z,14.60
2018-02-15T17:32:29.361Z,12.87
2018-02-15T17:43:02.413Z,13.57
2018-02-15T17:47:45.824Z,12.33
2018-02-15T18:13:29.544Z,13.40
2018-02-15T18:32:08.407Z,14.00
2018-02-15T18:37:08.692Z,13.87
2018-02-15T19:04:21.999Z,12.37
2018-02-15T19:14:22.299Z,13.57
2018-02-15T19:19:12.881Z,12.83
2018-02-15T19:35:05.924Z,11.03
2018-02-15T19:58:20.538Z,9.53
2018-02-15T20:13:57.913Z,10.10
2018-02-15T20:45:30.336Z,12.10
2018-02-15T21:16:55.685Z,10.40
2018-02-15T21:35:12.330Z,9.67
2018-02-15T22:08:01.907Z,9.30
2018-02-15T22:12:45.262Z,9.90
2018-02-15T22:22:45.661Z,10.43
2018-02-15T22:32:30.525Z,10.60
2018-02-15T22:37:15.090Z,10.90
2018-02-15T22:42:01.720Z,10.70
2018-02-15T22:46:45.381Z,11.17
2018-02-15T22:51:28.884Z,11.50
2018-02-15T22:56:12.530Z,10.00
2018-02-15T23:11:32.086Z,10.60
2018-02-15T23:25:13.476Z,9.30
2018-02-15T23:29:57.127Z,10.30
2018-02-15T23:34:40.947Z,10.50
2018-02-15T23:39:28.901Z,10.17
2018-02-15T23:44:13.751Z,10.63
2018-02-15T23:49:02.038Z,9.67
2018-02-15T23:53:48.039Z,10.40
2018-02-15T23:58:38.581Z,10.13
